Карточка аэропорта UMKK

Внимание!
Информация на этой странице в стадии наполнения.
Если вы не увидели какой-то информации, или заметили неточность - пожалуйста сообщите нам!
Спасибо!
Команда RU-STAFF
Название аэропортаХраброво
Название аэропорта (англ.)Khrabrovo
Превышение43 ft. (13.1 m.)
Координаты54°53.4', 20°35.55'
Высота перехода4000ft
Эшелон переходаFL50 (QNH>=1013hPa); FL60 (QNH<1013hPa); FL50 (QNH<977hPa);
Коды ответчика6620-6637
Зона ОрВДКалининград РПИ (UMKK)
Данные METARUMKK 280600Z 33002MPS 0300 0250E R24/0250N FG VV002 05/05 Q1017 R24/290095 NOSIG RMK QBB070 OBST OBSC QFE761/1015
Проноз погоды (TAF)UMKK 280457Z 2806/2906 VRB01MPS 0300 FG VV001 TEMPO 2806/2809 0800 -RADZ FG BKN002 OVC013 FM280900 34003G08MPS 1200 -RA BR BKN003 OVC009 TEMPO 2809/2816 0400 -RA FG BKN002 BKN011 BECMG 2816/2817 6000 NSW BECMG 2821/2824 27003MPS SCT005 BKN016
NOTAMshow/hide NOTAM
AWOS   TABLE

Информация о ВПП

ВПП Длина ВПП (м.) Покрытие Курс ВПП Частота ILS
243350Асфальтобетон240109.5
063350Асфальтобетон60110.3

Диспетчерские позиции

Позывной Наименование органа УВД Частота
UMKK_TWRКалининград-Вышка127.2
UMKK_APPКалининград-Подход126.0



Спутниковое изображение